Time;durP1;ratioP1;P1;durP2;ratioP2;P2;SDS_P1;SDS_P2;PMS_P1;PMS_P2;Temp;Humidity;BMP_temperature;BMP_pressure;BME280_temperature;BME280_humidity;BME280_pressure;Samples;Min_cycle;Max_cycle;Signal;HPM_P1;HPM_P2
2023/03/17 00:01:06;;;;;;;8.20;2.67;;;7.60;99.90;;;;;;4941746;28;20445;-68
2023/03/17 00:03:44;;;;;;;6.97;2.95;;;7.60;99.90;;;;;;4954940;28;20054;-68
2023/03/17 00:06:17;;;;;;;6.15;3.33;;;7.60;99.90;;;;;;4945475;28;20050;-68
2023/03/17 00:08:45;;;;;;;4.70;2.50;;;7.70;99.90;;;;;;4955760;28;20055;-68
2023/03/17 00:11:16;;;;;;;7.75;2.80;;;7.60;99.90;;;;;;4975907;28;20109;-68
2023/03/17 00:13:43;;;;;;;6.50;3.20;;;7.70;99.90;;;;;;4978851;28;20058;-68
2023/03/17 00:16:15;;;;;;;6.38;3.03;;;7.60;99.90;;;;;;4970684;28;20046;-68
2023/03/17 00:18:42;;;;;;;4.97;2.60;;;7.60;99.90;;;;;;4954661;28;20258;-68
2023/03/17 00:21:15;;;;;;;5.07;2.78;;;7.70;99.90;;;;;;4958828;28;20046;-68
2023/03/17 00:23:44;;;;;;;6.70;3.33;;;7.70;99.90;;;;;;4974772;28;20050;-68
2023/03/17 00:26:11;;;;;;;5.10;3.03;;;7.70;99.90;;;;;;4971899;28;20030;-68
2023/03/17 00:28:37;;;;;;;5.30;2.70;;;7.70;99.90;;;;;;4975874;28;20045;-68
2023/03/17 00:31:13;;;;;;;3.97;2.40;;;7.80;99.90;;;;;;4959601;28;20110;-68
2023/03/17 00:33:39;;;;;;;4.57;2.38;;;7.70;99.90;;;;;;4971848;28;20046;-68
2023/03/17 00:36:06;;;;;;;5.97;2.53;;;7.70;99.90;;;;;;4963602;28;20057;-68
2023/03/17 00:38:32;;;;;;;4.50;2.70;;;7.70;99.90;;;;;;4941413;28;20066;-68
2023/03/17 00:40:58;;;;;;;4.37;2.57;;;7.80;99.90;;;;;;4980129;28;20038;-68
2023/03/17 00:43:24;;;;;;;6.35;2.83;;;7.80;99.90;;;;;;4980079;28;20081;-69
2023/03/17 00:45:49;;;;;;;5.35;2.53;;;7.80;99.90;;;;;;4980115;28;20185;-69
2023/03/17 00:48:20;;;;;;;5.70;3.20;;;7.80;99.90;;;;;;4967315;28;20502;-68
2023/03/17 00:50:48;;;;;;;5.63;2.53;;;7.80;99.90;;;;;;4984079;28;20051;-68
2023/03/17 00:53:17;;;;;;;4.40;2.35;;;7.80;99.90;;;;;;4956043;28;20211;-68
2023/03/17 00:55:44;;;;;;;3.80;2.20;;;7.80;99.90;;;;;;4957043;28;20188;-68
2023/03/17 00:58:27;;;;;;;4.97;2.47;;;7.90;99.90;;;;;;4967223;28;20100;-68
2023/03/17 01:00:53;;;;;;;4.65;2.55;;;7.90;99.90;;;;;;4978427;28;20063;-68
2023/03/17 01:03:20;;;;;;;4.85;2.53;;;7.90;99.90;;;;;;4972622;28;20116;-68
2023/03/17 01:05:47;;;;;;;5.90;2.42;;;7.90;99.90;;;;;;4960722;28;20057;-68
2023/03/17 01:08:12;;;;;;;6.60;2.58;;;7.90;99.90;;;;;;4977331;28;20042;-68
2023/03/17 01:10:38;;;;;;;5.07;2.60;;;7.90;99.90;;;;;;4959809;28;20065;-68
2023/03/17 01:13:05;;;;;;;4.72;2.67;;;7.90;99.90;;;;;;4980913;28;20045;-68
2023/03/17 01:15:31;;;;;;;;;;;7.90;99.90;;;;;;4982907;28;20069;-68
2023/03/17 01:18:01;;;;;;;3.63;2.00;;;7.90;99.90;;;;;;4988954;28;19921;-68
2023/03/17 01:20:31;;;;;;;4.07;2.17;;;7.90;99.90;;;;;;4940209;28;20053;-68
2023/03/17 01:22:57;;;;;;;5.32;2.63;;;7.90;99.90;;;;;;4955588;28;20125;-68
2023/03/17 01:25:23;;;;;;;8.05;2.47;;;7.90;99.90;;;;;;4971251;28;20057;-68
2023/03/17 01:27:50;;;;;;;4.57;2.05;;;7.90;99.90;;;;;;4964140;28;20401;-68
2023/03/17 01:30:19;;;;;;;6.45;2.72;;;7.90;99.90;;;;;;4962592;28;20046;-68
2023/03/17 01:32:45;;;;;;;5.22;2.38;;;7.90;99.90;;;;;;4972891;28;20141;-68
2023/03/17 01:35:11;;;;;;;3.97;2.22;;;7.90;99.90;;;;;;4973108;28;20061;-68
2023/03/17 01:37:37;;;;;;;4.75;2.55;;;7.90;99.90;;;;;;4963444;28;20076;-68
2023/03/17 01:40:11;;;;;;;3.47;2.28;;;7.90;99.90;;;;;;4952186;28;20397;-68
2023/03/17 01:42:38;;;;;;;3.60;1.70;;;7.90;99.90;;;;;;4959805;28;20143;-68
2023/03/17 01:45:06;;;;;;;6.50;2.50;;;7.90;99.90;;;;;;4959625;28;20128;-68
2023/03/17 01:47:32;;;;;;;6.95;2.10;;;7.90;99.90;;;;;;4962151;28;20046;-68
2023/03/17 01:50:01;;;;;;;5.85;2.05;;;7.90;99.90;;;;;;4958821;28;20374;-68
2023/03/17 01:52:28;;;;;;;5.38;2.50;;;7.90;99.90;;;;;;4962872;28;20497;-68
2023/03/17 01:54:59;;;;;;;4.10;2.47;;;7.90;99.90;;;;;;4975253;28;20117;-68
2023/03/17 01:57:43;;;;;;;4.15;2.25;;;7.90;99.90;;;;;;4957620;28;20050;-68
2023/03/17 02:00:15;;;;;;;4.43;2.35;;;7.90;99.90;;;;;;4955001;28;20122;-68
2023/03/17 02:02:43;;;;;;;8.55;2.35;;;7.90;99.90;;;;;;4957236;28;20420;-68
2023/03/17 02:05:12;;;;;;;4.03;1.98;;;7.80;99.90;;;;;;4961647;28;20062;-68
2023/03/17 02:07:40;;;;;;;4.30;2.30;;;7.70;99.90;;;;;;4977135;28;20045;-68
2023/03/17 02:10:07;;;;;;;6.07;2.50;;;7.80;99.90;;;;;;4965717;28;20047;-68
2023/03/17 02:12:34;;;;;;;4.60;2.38;;;7.80;99.90;;;;;;4974309;28;20143;-69
2023/03/17 02:15:00;;;;;;;2.83;1.85;;;7.70;99.90;;;;;;4956428;28;21230;-69
2023/03/17 02:17:27;;;;;;;5.80;2.50;;;7.80;99.90;;;;;;4942691;28;20042;-69
2023/03/17 02:19:54;;;;;;;4.53;2.42;;;7.70;99.90;;;;;;4974778;28;20057;-69
2023/03/17 02:22:20;;;;;;;4.47;2.38;;;7.70;99.90;;;;;;4955538;28;20039;-69
2023/03/17 02:24:54;;;;;;;4.53;2.20;;;7.70;99.90;;;;;;4969071;28;20137;-69
2023/03/17 02:27:28;;;;;;;3.42;1.90;;;7.70;99.90;;;;;;4972524;28;20057;-69
2023/03/17 02:29:54;;;;;;;3.53;1.88;;;7.80;99.90;;;;;;4977794;28;20042;-69
2023/03/17 02:32:19;;;;;;;4.07;2.30;;;7.80;99.90;;;;;;4964926;28;20100;-69
2023/03/17 02:34:47;;;;;;;4.47;2.17;;;7.80;99.90;;;;;;4976103;28;20035;-69
2023/03/17 02:37:13;;;;;;;6.15;2.28;;;7.70;99.90;;;;;;4957976;28;20050;-68
2023/03/17 02:39:39;;;;;;;;;;;7.70;99.90;;;;;;4943608;28;20055;-69
2023/03/17 02:42:05;;;;;;;5.63;2.53;;;7.70;99.90;;;;;;4957534;28;19961;-69
2023/03/17 02:44:31;;;;;;;5.45;2.22;;;7.70;99.90;;;;;;4979916;28;20139;-68
2023/03/17 02:46:58;;;;;;;4.85;2.03;;;7.70;99.90;;;;;;4962284;28;20038;-68
2023/03/17 02:49:24;;;;;;;4.47;2.38;;;7.70;99.90;;;;;;4957738;28;20043;-68
2023/03/17 02:51:50;;;;;;;4.10;2.13;;;7.80;99.90;;;;;;4937721;28;20059;-68
2023/03/17 02:54:16;;;;;;;5.32;2.28;;;7.70;99.90;;;;;;4963051;28;20313;-69
2023/03/17 02:56:42;;;;;;;4.83;2.10;;;7.70;99.90;;;;;;4979976;28;20775;-68
2023/03/17 02:59:08;;;;;;;7.07;2.40;;;7.70;99.90;;;;;;4952894;28;20054;-69
2023/03/17 03:01:34;;;;;;;5.15;2.25;;;7.70;99.90;;;;;;4973567;28;20137;-69
2023/03/17 03:04:00;;;;;;;5.53;2.38;;;7.70;99.90;;;;;;4969891;28;20046;-69
2023/03/17 03:06:25;;;;;;;4.43;2.25;;;7.70;99.90;;;;;;4972504;28;20447;-69
2023/03/17 03:08:51;;;;;;;4.87;2.63;;;7.70;99.90;;;;;;4951388;28;20133;-69
2023/03/17 03:11:18;;;;;;;4.03;2.25;;;7.70;99.90;;;;;;4978361;28;20515;-69
2023/03/17 03:13:43;;;;;;;5.10;2.42;;;7.70;99.90;;;;;;4979864;28;20065;-69
2023/03/17 03:16:09;;;;;;;3.93;2.13;;;7.60;99.90;;;;;;4979140;28;20042;-69
2023/03/17 03:18:36;;;;;;;4.30;2.30;;;7.70;99.90;;;;;;4971367;28;20043;-69
2023/03/17 03:21:03;;;;;;;4.72;2.13;;;7.70;99.90;;;;;;4980387;28;20582;-68
2023/03/17 03:23:29;;;;;;;5.55;2.33;;;7.70;99.90;;;;;;4957540;28;20489;-69
2023/03/17 03:25:56;;;;;;;4.18;2.03;;;7.70;99.90;;;;;;4964714;28;20205;-68
2023/03/17 03:28:22;;;;;;;5.90;2.63;;;7.70;99.90;;;;;;4977603;28;20448;-68
2023/03/17 03:30:48;;;;;;;5.82;2.53;;;7.70;99.90;;;;;;4963755;28;20169;-68
2023/03/17 03:33:15;;;;;;;4.07;2.00;;;7.70;99.90;;;;;;4960088;28;20185;-68
2023/03/17 03:35:43;;;;;;;5.28;2.72;;;7.70;99.90;;;;;;4945868;28;20109;-69
2023/03/17 03:38:10;;;;;;;4.82;2.20;;;7.70;99.90;;;;;;4976938;28;20042;-69
2023/03/17 03:40:36;;;;;;;5.80;2.30;;;7.70;99.90;;;;;;4960138;28;20156;-69
2023/03/17 03:43:02;;;;;;;4.32;2.28;;;7.80;99.90;;;;;;4956520;28;20050;-69
2023/03/17 03:45:28;;;;;;;5.47;2.42;;;7.80;99.90;;;;;;4962899;28;20243;-69
2023/03/17 03:47:54;;;;;;;4.20;2.15;;;7.80;99.90;;;;;;4976805;28;20060;-69
2023/03/17 03:50:21;;;;;;;6.85;2.25;;;7.70;99.90;;;;;;4957179;28;20126;-69
2023/03/17 03:52:46;;;;;;;4.13;2.22;;;7.70;99.90;;;;;;4958695;28;20042;-68
2023/03/17 03:55:14;;;;;;;6.17;2.60;;;7.80;99.90;;;;;;4943313;28;20475;-68
2023/03/17 03:57:40;;;;;;;6.15;2.47;;;7.80;99.90;;;;;;4994158;23;20156;-67
2023/03/17 04:00:07;;;;;;;4.43;2.50;;;7.80;99.90;;;;;;4974736;28;20208;-67
2023/03/17 04:02:33;;;;;;;6.80;2.55;;;7.80;99.90;;;;;;4976016;28;20041;-67
2023/03/17 04:05:00;;;;;;;5.32;2.40;;;7.80;99.90;;;;;;5008263;28;20045;-68
2023/03/17 04:07:26;;;;;;;;;;;7.70;99.90;;;;;;4993114;28;20474;-67
2023/03/17 04:09:52;;;;;;;5.18;2.45;;;7.80;99.90;;;;;;4999607;28;19917;-67
2023/03/17 04:12:18;;;;;;;4.15;2.08;;;7.80;99.90;;;;;;4992488;28;20388;-68
2023/03/17 04:14:43;;;;;;;4.65;2.47;;;7.80;99.90;;;;;;4992273;28;20065;-68
2023/03/17 04:17:10;;;;;;;4.27;2.27;;;7.70;99.90;;;;;;5009967;28;20049;-68
2023/03/17 04:19:37;;;;;;;5.03;2.65;;;7.70;99.90;;;;;;5017356;28;20092;-68
2023/03/17 04:22:03;;;;;;;;;;;7.70;99.90;;;;;;4992340;28;20042;-67
2023/03/17 04:24:28;;;;;;;5.20;2.00;;;7.70;99.90;;;;;;4995809;28;19918;-68
2023/03/17 04:26:55;;;;;;;3.53;1.90;;;7.60;99.90;;;;;;4991788;28;20050;-67
2023/03/17 04:29:20;;;;;;;3.15;2.17;;;7.60;99.90;;;;;;4994762;28;20077;-67
2023/03/17 04:31:49;;;;;;;4.33;2.20;;;7.60;99.90;;;;;;4991468;28;20080;-67
2023/03/17 04:34:17;;;;;;;4.72;2.47;;;7.60;99.90;;;;;;4997067;28;20055;-67
2023/03/17 04:36:45;;;;;;;4.43;2.00;;;7.60;99.90;;;;;;4991756;28;20046;-67
2023/03/17 04:39:10;;;;;;;4.40;2.20;;;7.50;99.90;;;;;;4991245;28;20050;-67
2023/03/17 04:41:37;;;;;;;6.20;2.63;;;7.50;99.90;;;;;;5022166;28;20041;-67
2023/03/17 04:44:02;;;;;;;5.13;2.60;;;7.50;99.90;;;;;;4976441;28;20130;-67
2023/03/17 04:46:28;;;;;;;4.27;2.27;;;7.50;99.90;;;;;;4999670;28;20121;-67
2023/03/17 04:48:55;;;;;;;4.70;2.40;;;7.50;99.90;;;;;;4990903;28;20052;-67
2023/03/17 04:51:21;;;;;;;3.72;2.03;;;7.40;99.90;;;;;;4991567;28;20038;-70
2023/03/17 04:53:47;;;;;;;3.93;2.47;;;7.40;99.90;;;;;;5015837;28;20085;-69
2023/03/17 04:56:13;;;;;;;4.55;2.45;;;7.40;99.90;;;;;;5009415;28;20041;-69
2023/03/17 04:58:39;;;;;;;5.80;2.92;;;7.40;99.90;;;;;;4994910;28;20520;-69
2023/03/17 05:01:06;;;;;;;5.20;2.10;;;7.30;99.90;;;;;;5011078;28;20049;-70
2023/03/17 05:03:32;;;;;;;;;;;7.30;99.90;;;;;;4976447;28;20638;-69
2023/03/17 05:05:58;;;;;;;6.55;2.30;;;7.30;99.90;;;;;;4991497;28;19952;-69
2023/03/17 05:08:25;;;;;;;6.07;2.55;;;7.30;99.90;;;;;;4992194;28;20046;-69
2023/03/17 05:10:51;;;;;;;3.25;2.13;;;7.30;99.90;;;;;;4993903;28;20050;-69
2023/03/17 05:13:17;;;;;;;4.88;2.47;;;7.30;99.90;;;;;;5011413;28;20104;-70
2023/03/17 05:15:46;;;;;;;7.47;2.13;;;7.40;99.90;;;;;;4990689;28;20085;-69
2023/03/17 05:18:12;;;;;;;3.85;2.00;;;7.40;99.90;;;;;;4979111;28;20089;-69
2023/03/17 05:20:37;;;;;;;3.93;2.20;;;7.40;99.90;;;;;;4993967;28;20594;-69
2023/03/17 05:23:06;;;;;;;4.55;2.40;;;7.40;99.90;;;;;;4990945;28;20070;-69
2023/03/17 05:25:31;;;;;;;7.40;2.53;;;7.40;99.90;;;;;;4990353;28;20132;-69
2023/03/17 05:27:57;;;;;;;6.83;2.30;;;7.40;99.90;;;;;;4991444;28;20046;-69
2023/03/17 05:30:24;;;;;;;4.00;1.87;;;7.50;99.90;;;;;;4992033;28;20038;-69
2023/03/17 05:32:50;;;;;;;;;;;7.50;99.90;;;;;;4992087;28;20037;-68
2023/03/17 05:35:16;;;;;;;5.88;2.15;;;7.50;99.90;;;;;;4995105;28;19988;-67
2023/03/17 05:37:42;;;;;;;3.15;1.70;;;7.50;99.90;;;;;;4992280;28;20048;-67
2023/03/17 05:40:09;;;;;;;11.57;2.45;;;7.60;99.90;;;;;;4991902;28;20459;-68
2023/03/17 05:42:35;;;;;;;3.63;1.80;;;7.60;99.90;;;;;;4994258;28;20045;-68
2023/03/17 05:45:01;;;;;;;3.80;2.20;;;7.60;99.90;;;;;;5006144;28;20056;-68
2023/03/17 05:47:30;;;;;;;4.43;2.22;;;7.60;99.90;;;;;;4991926;28;20096;-67
2023/03/17 05:49:56;;;;;;;5.93;2.38;;;7.70;99.90;;;;;;4990376;28;20080;-67
2023/03/17 05:52:22;;;;;;;3.17;1.70;;;7.70;99.90;;;;;;5016913;28;20073;-67
2023/03/17 05:54:47;;;;;;;6.13;2.33;;;7.70;99.90;;;;;;5003011;28;20045;-68
2023/03/17 05:57:15;;;;;;;4.23;1.70;;;7.70;99.90;;;;;;4999473;28;20946;-68
2023/03/17 05:59:41;;;;;;;4.38;2.20;;;7.70;99.90;;;;;;4990704;28;20839;-68
2023/03/17 06:02:07;;;;;;;2.83;1.70;;;7.80;99.90;;;;;;4993543;28;20081;-68
2023/03/17 06:04:33;;;;;;;7.18;2.08;;;7.70;99.90;;;;;;5011427;28;20034;-68
2023/03/17 06:06:59;;;;;;;3.03;1.70;;;7.70;99.90;;;;;;4977685;28;20091;-68
2023/03/17 06:09:25;;;;;;;3.90;2.00;;;7.80;99.90;;;;;;4994846;28;20133;-68
2023/03/17 06:11:50;;;;;;;3.60;2.10;;;7.80;99.90;;;;;;4993416;28;20049;-68
2023/03/17 06:14:16;;;;;;;5.23;2.07;;;7.80;99.90;;;;;;4995328;28;20053;-68
2023/03/17 06:16:42;;;;;;;9.00;1.80;;;7.80;99.90;;;;;;4992015;28;20076;-68
2023/03/17 06:19:08;;;;;;;3.83;1.73;;;7.90;99.90;;;;;;4999938;28;20057;-68
2023/03/17 06:21:34;;;;;;;4.87;1.53;;;7.90;99.90;;;;;;4991163;28;20069;-68
2023/03/17 06:23:59;;;;;;;4.67;1.80;;;7.90;99.90;;;;;;4991701;28;20503;-68
2023/03/17 06:26:26;;;;;;;4.10;2.23;;;7.90;99.90;;;;;;4990498;28;20064;-68
2023/03/17 06:28:54;;;;;;;3.92;1.80;;;7.80;99.90;;;;;;4990792;28;20057;-68
2023/03/17 06:31:20;;;;;;;5.32;1.85;;;7.90;99.90;;;;;;4986691;28;20090;-68
2023/03/17 06:33:46;;;;;;;4.07;1.63;;;8.00;99.90;;;;;;4982443;28;20560;-68
2023/03/17 06:36:12;;;;;;;3.47;2.03;;;8.00;99.90;;;;;;5002718;28;20113;-68
2023/03/17 06:38:38;;;;;;;4.90;1.83;;;8.00;99.90;;;;;;4970297;28;20123;-67
2023/03/17 06:41:04;;;;;;;4.38;2.28;;;8.00;99.90;;;;;;4985678;28;20046;-68
2023/03/17 06:43:31;;;;;;;5.40;2.30;;;8.00;99.90;;;;;;5005080;28;20503;-68
2023/03/17 06:45:57;;;;;;;4.05;2.17;;;8.00;99.90;;;;;;5001334;28;20484;-68
2023/03/17 06:48:23;;;;;;;4.38;1.90;;;8.00;99.90;;;;;;4985342;28;20210;-69
2023/03/17 06:50:49;;;;;;;5.45;1.92;;;8.00;99.90;;;;;;4980994;28;20046;-72
2023/03/17 06:53:15;;;;;;;3.70;1.93;;;8.00;99.90;;;;;;5006413;28;20111;-71
2023/03/17 06:55:41;;;;;;;4.47;1.80;;;8.10;99.90;;;;;;5008793;28;20041;-68
2023/03/17 06:58:09;;;;;;;3.83;2.17;;;8.10;99.90;;;;;;4991671;28;20232;-67
2023/03/17 07:00:37;;;;;;;5.45;2.00;;;8.10;99.90;;;;;;4981018;28;20052;-67
2023/03/17 07:03:04;;;;;;;4.22;1.45;;;8.10;99.90;;;;;;5010289;28;20103;-67
2023/03/17 07:05:30;;;;;;;4.82;1.25;;;8.10;99.90;;;;;;4991429;28;20050;-68
2023/03/17 07:07:56;;;;;;;7.35;1.92;;;8.20;99.90;;;;;;4994320;28;20045;-67
2023/03/17 07:10:22;;;;;;;4.23;2.20;;;8.20;99.90;;;;;;5019188;28;20407;-67
2023/03/17 07:12:48;;;;;;;3.57;2.00;;;8.20;99.90;;;;;;4992857;28;20508;-67
2023/03/17 07:15:15;;;;;;;3.55;2.15;;;8.30;99.90;;;;;;4991466;28;20330;-67
2023/03/17 07:17:41;;;;;;;3.75;2.22;;;8.30;99.90;;;;;;5010075;28;20045;-68
2023/03/17 07:20:08;;;;;;;4.00;2.05;;;8.40;99.90;;;;;;4992470;28;20042;-67
2023/03/17 07:22:34;;;;;;;4.63;1.92;;;8.40;99.90;;;;;;4976259;28;20049;-67
2023/03/17 07:25:03;;;;;;;4.00;1.77;;;8.50;99.90;;;;;;4996155;28;20169;-67
2023/03/17 07:27:30;;;;;;;6.70;1.80;;;8.50;99.90;;;;;;4988620;28;20133;-71
2023/03/17 07:29:55;;;;;;;3.58;2.03;;;8.60;99.90;;;;;;4991647;28;20818;-68
2023/03/17 07:32:21;;;;;;;3.70;2.03;;;8.70;99.90;;;;;;4998420;28;20045;-67
2023/03/17 07:34:47;;;;;;;5.63;2.70;;;8.80;99.90;;;;;;4989823;28;20105;-68
2023/03/17 07:37:13;;;;;;;5.70;2.28;;;8.90;99.90;;;;;;4985863;28;20129;-68
2023/03/17 07:39:39;;;;;;;6.50;2.43;;;8.90;99.90;;;;;;4990538;28;20049;-67
2023/03/17 07:42:04;;;;;;;5.20;2.10;;;9.00;99.90;;;;;;4976517;28;20464;-68
2023/03/17 07:44:33;;;;;;;4.23;2.33;;;9.00;99.90;;;;;;4989611;28;20139;-67
2023/03/17 07:46:59;;;;;;;4.03;2.00;;;9.10;99.90;;;;;;5009815;28;20299;-68
2023/03/17 07:49:25;;;;;;;3.93;1.60;;;9.10;99.90;;;;;;4992404;28;20041;-67
2023/03/17 07:51:51;;;;;;;5.30;2.20;;;9.10;99.90;;;;;;5006111;28;20049;-67
2023/03/17 07:54:16;;;;;;;3.40;1.90;;;9.20;99.90;;;;;;5004798;28;20042;-67
2023/03/17 07:56:44;;;;;;;5.88;2.15;;;9.30;99.90;;;;;;5009710;28;20053;-67
2023/03/17 07:59:10;;;;;;;4.78;2.22;;;9.30;99.90;;;;;;4990458;28;20454;-67
2023/03/17 08:01:36;;;;;;;4.90;2.50;;;9.30;99.90;;;;;;4992399;28;20050;-67
2023/03/17 08:04:03;;;;;;;3.38;1.85;;;9.40;99.90;;;;;;4988543;28;20121;-68
2023/03/17 08:06:30;;;;;;;3.17;1.70;;;9.40;99.90;;;;;;4996313;28;20058;-68
2023/03/17 08:08:55;;;;;;;6.18;2.10;;;9.40;99.90;;;;;;4988215;28;20045;-67
2023/03/17 08:11:22;;;;;;;5.33;1.93;;;9.50;99.90;;;;;;4989195;28;20369;-67
2023/03/17 08:13:48;;;;;;;3.22;1.88;;;9.50;99.90;;;;;;4977272;28;20394;-67
2023/03/17 08:16:14;;;;;;;;;;;9.60;99.90;;;;;;4972320;28;20511;-68
2023/03/17 08:18:40;;;;;;;7.57;2.30;;;9.60;99.90;;;;;;4988337;28;19925;-67
2023/03/17 08:21:06;;;;;;;5.97;2.07;;;9.60;99.90;;;;;;4989547;28;20148;-68
2023/03/17 08:23:32;;;;;;;4.68;2.17;;;9.70;99.90;;;;;;4989698;28;20479;-67
2023/03/17 08:26:02;;;;;;;3.92;1.85;;;9.70;99.90;;;;;;5004418;28;20100;-67
2023/03/17 08:28:29;;;;;;;4.03;2.20;;;9.80;99.90;;;;;;4990290;28;20117;-68
2023/03/17 08:31:04;;;;;;;6.38;2.05;;;9.80;99.90;;;;;;4984476;28;20041;-68
2023/03/17 08:33:30;;;;;;;4.68;2.00;;;9.80;99.90;;;;;;4987352;28;20501;-67
2023/03/17 08:35:56;;;;;;;4.83;2.53;;;9.90;99.90;;;;;;4986484;28;20038;-67
2023/03/17 08:38:22;;;;;;;3.83;2.10;;;9.80;99.90;;;;;;5001441;28;20407;-67
2023/03/17 08:40:49;;;;;;;3.13;1.93;;;9.80;99.90;;;;;;4987398;28;20046;-68
2023/03/17 08:43:15;;;;;;;3.90;2.05;;;9.80;99.90;;;;;;4986355;28;20045;-68
2023/03/17 08:45:40;;;;;;;3.10;1.83;;;9.80;99.90;;;;;;4993999;28;20053;-67
2023/03/17 08:48:07;;;;;;;6.63;2.40;;;9.90;99.90;;;;;;5005644;28;20041;-67
2023/03/17 08:50:33;;;;;;;4.57;2.40;;;9.90;99.90;;;;;;4972186;28;20048;-67
2023/03/17 08:52:58;;;;;;;5.68;2.10;;;9.90;99.90;;;;;;4988819;28;20054;-67
2023/03/17 08:55:24;;;;;;;4.40;2.23;;;10.00;99.90;;;;;;4968612;28;20045;-67
2023/03/17 08:57:50;;;;;;;5.20;2.40;;;10.10;99.90;;;;;;4989307;28;20367;-68
2023/03/17 09:00:19;;;;;;;6.80;2.07;;;10.20;99.90;;;;;;5000495;28;20537;-67
2023/03/17 09:02:45;;;;;;;5.43;2.20;;;10.40;99.90;;;;;;4987371;28;20500;-68
2023/03/17 09:05:13;;;;;;;4.38;2.10;;;10.40;99.90;;;;;;4986333;28;20044;-68
2023/03/17 09:07:39;;;;;;;5.35;2.95;;;10.60;99.90;;;;;;4993480;28;20038;-68
2023/03/17 09:10:06;;;;;;;;;;;10.70;99.90;;;;;;4988678;28;20080;-67
2023/03/17 09:12:32;;;;;;;4.70;2.47;;;10.80;99.90;;;;;;4977556;28;20193;-67
2023/03/17 09:14:58;;;;;;;3.40;2.20;;;10.90;99.90;;;;;;4987470;28;20448;-68
2023/03/17 09:17:24;;;;;;;5.35;2.15;;;11.10;99.90;;;;;;4987194;28;20050;-67
2023/03/17 09:19:49;;;;;;;4.73;2.30;;;11.20;99.90;;;;;;4988492;28;20054;-67
2023/03/17 09:22:17;;;;;;;4.47;2.50;;;11.40;99.90;;;;;;4983294;28;20391;-67
2023/03/17 09:24:43;;;;;;;5.07;2.85;;;11.50;99.90;;;;;;4988029;28;20806;-67
2023/03/17 09:27:09;;;;;;;5.78;3.35;;;11.60;99.90;;;;;;5006689;28;20185;-67
2023/03/17 09:29:34;;;;;;;5.77;2.40;;;11.60;99.90;;;;;;5003282;28;20059;-68
2023/03/17 09:32:01;;;;;;;6.80;2.53;;;11.70;99.90;;;;;;5003743;28;20066;-68
2023/03/17 09:34:26;;;;;;;5.57;2.50;;;11.70;99.90;;;;;;5008005;28;20053;-67
2023/03/17 09:36:53;;;;;;;6.73;2.70;;;11.80;99.90;;;;;;4991488;28;20195;-67
2023/03/17 09:39:21;;;;;;;9.43;2.40;;;11.90;99.90;;;;;;4999080;28;20081;-68
2023/03/17 09:41:56;;;;;;;5.93;2.95;;;12.00;99.90;;;;;;5011086;28;20172;-67
2023/03/17 09:44:40;;;;;;;5.00;2.15;;;12.10;99.90;;;;;;4988827;28;20053;-68
2023/03/17 09:47:35;;;;;;;6.22;2.72;;;12.20;99.90;;;;;;4988700;28;20050;-68
2023/03/17 09:50:09;;;;;;;5.88;2.42;;;12.30;99.90;;;;;;4985229;28;20045;-68
2023/03/17 09:52:35;;;;;;;4.28;2.63;;;12.50;99.90;;;;;;5005422;28;20193;-68
2023/03/17 09:55:06;;;;;;;5.68;2.58;;;12.50;99.90;;;;;;4967508;28;20515;-67
2023/03/17 09:57:35;;;;;;;5.93;3.47;;;12.70;99.90;;;;;;5053388;23;20113;-70
2023/03/17 10:00:25;;;;;;;5.65;2.55;;;12.80;99.90;;;;;;5020433;28;20182;-70
2023/03/17 10:02:51;;;;;;;8.73;3.05;;;13.00;99.90;;;;;;4982905;28;20042;-70
2023/03/17 10:05:20;;;;;;;7.70;3.30;;;13.00;99.90;;;;;;5016129;28;20519;-70
2023/03/17 10:07:58;;;;;;;5.60;2.78;;;13.20;99.90;;;;;;5007392;28;20122;-70
2023/03/17 10:10:28;;;;;;;7.88;3.10;;;13.30;99.90;;;;;;5021310;28;20029;-68
2023/03/17 10:13:18;;;;;;;7.00;2.88;;;13.30;99.90;;;;;;5024552;28;20030;-68
2023/03/17 10:15:52;;;;;;;4.07;2.55;;;13.40;99.90;;;;;;5018747;28;20095;-69
2023/03/17 10:18:23;;;;;;;7.97;2.65;;;13.60;99.90;;;;;;5007307;28;20408;-69
2023/03/17 10:20:55;;;;;;;7.60;3.90;;;13.70;99.90;;;;;;5003726;28;20054;-69
2023/03/17 10:23:26;;;;;;;6.43;2.97;;;13.80;99.90;;;;;;5006191;28;20056;-69
2023/03/17 10:25:55;;;;;;;5.07;2.72;;;13.90;99.90;;;;;;5006233;28;20045;-68
2023/03/17 10:28:30;;;;;;;7.10;2.75;;;14.00;99.90;;;;;;4993341;28;20045;-68
2023/03/17 10:31:17;;;;;;;6.82;3.13;;;14.10;99.90;;;;;;4992797;28;20045;-69
2023/03/17 10:33:47;;;;;;;7.70;3.22;;;14.30;99.90;;;;;;5010048;28;20076;-69
2023/03/17 10:36:15;;;;;;;7.68;2.90;;;14.40;99.90;;;;;;5010535;28;20049;-69
2023/03/17 10:38:53;;;;;;;4.95;3.00;;;14.50;99.90;;;;;;5009538;28;20053;-69
2023/03/17 10:41:19;;;;;;;6.15;2.80;;;14.60;99.90;;;;;;5027356;28;20120;-69
2023/03/17 10:43:49;;;;;;;6.88;3.10;;;14.80;99.90;;;;;;5008607;28;20041;-69
2023/03/17 10:46:24;;;;;;;5.53;3.10;;;14.70;99.90;;;;;;5015305;28;20487;-69
2023/03/17 10:48:55;;;;;;;6.25;3.00;;;14.80;99.90;;;;;;5000656;28;20059;-69
2023/03/17 10:51:31;;;;;;;7.32;2.67;;;14.90;99.90;;;;;;5015140;28;20038;-69
2023/03/17 10:54:00;;;;;;;5.18;2.72;;;15.00;99.90;;;;;;4996642;28;20050;-69
2023/03/17 10:56:29;;;;;;;9.63;3.15;;;15.10;99.90;;;;;;5008223;28;20045;-69
2023/03/17 10:58:56;;;;;;;5.13;2.50;;;15.20;99.90;;;;;;5018741;28;20091;-69
2023/03/17 11:01:38;;;;;;;6.70;3.33;;;15.30;99.90;;;;;;5001208;28;20100;-69
2023/03/17 11:04:37;;;;;;;6.85;2.63;;;15.40;99.90;;;;;;5026497;28;20048;-69
2023/03/17 11:07:14;;;;;;;6.28;2.97;;;15.50;99.90;;;;;;5024022;28;20045;-69
2023/03/17 11:09:40;;;;;;;4.85;2.70;;;15.60;99.90;;;;;;5008882;28;20045;-69
2023/03/17 11:12:16;;;;;;;8.90;2.80;;;15.70;99.90;;;;;;5027350;28;20061;-69
2023/03/17 11:14:43;;;;;;;6.47;2.80;;;15.80;99.90;;;;;;5018082;28;20172;-69
2023/03/17 11:17:38;;;;;;;5.22;2.83;;;16.00;99.90;;;;;;5026420;28;20038;-69
2023/03/17 11:20:04;;;;;;;7.07;3.08;;;15.90;99.90;;;;;;4999043;28;20045;-69
2023/03/17 11:22:33;;;;;;;5.35;2.78;;;15.90;99.90;;;;;;5016347;28;20526;-69
2023/03/17 11:25:18;;;;;;;7.75;3.70;;;16.00;99.90;;;;;;4991917;28;20471;-69
2023/03/17 11:27:58;;;;;;;5.45;3.17;;;16.00;99.90;;;;;;5000148;28;20041;-69
2023/03/17 11:30:26;;;;;;;12.60;5.18;;;15.90;99.90;;;;;;5013315;28;20495;-69
2023/03/17 11:33:07;;;;;;;9.63;3.80;;;16.00;99.90;;;;;;5008105;28;20353;-69
2023/03/17 11:35:48;;;;;;;6.10;2.80;;;16.10;99.90;;;;;;5026173;28;20041;-69
2023/03/17 11:38:21;;;;;;;5.95;3.03;;;16.10;99.90;;;;;;5028579;28;20033;-69
2023/03/17 11:41:22;;;;;;;7.50;4.07;;;16.30;99.90;;;;;;5013837;28;20068;-69
2023/03/17 11:44:08;;;;;;;7.13;3.22;;;16.30;99.90;;;;;;4977346;28;20068;-69
2023/03/17 11:46:49;;;;;;;7.32;3.90;;;16.20;99.90;;;;;;5026622;28;20059;-69
2023/03/17 11:49:23;;;;;;;8.43;3.40;;;16.20;99.90;;;;;;5005725;28;20041;-69
2023/03/17 11:52:00;;;;;;;10.55;3.88;;;16.30;99.40;;;;;;5037248;28;20511;-69
2023/03/17 11:54:40;;;;;;;7.47;3.53;;;16.40;99.90;;;;;;5018418;28;20455;-69
2023/03/17 11:57:31;;;;;;;8.75;4.13;;;16.50;99.90;;;;;;5015007;28;20725;-69
2023/03/17 12:00:04;;;;;;;4.88;3.28;;;16.60;99.80;;;;;;4990959;28;20080;-69
2023/03/17 12:02:56;;;;;;;6.65;3.38;;;16.60;99.00;;;;;;5002302;28;20049;-69
2023/03/17 12:05:25;;;;;;;6.32;4.05;;;16.60;99.20;;;;;;5006900;28;20089;-69
2023/03/17 12:07:59;;;;;;;5.65;3.50;;;16.60;99.30;;;;;;5015434;28;20076;-69
2023/03/17 12:10:38;;;;;;;8.35;3.70;;;16.70;99.10;;;;;;4996730;28;20038;-70
2023/03/17 12:13:11;;;;;;;6.03;4.00;;;16.80;99.10;;;;;;5027861;28;20319;-69
2023/03/17 12:15:49;;;;;;;7.18;3.97;;;16.80;98.80;;;;;;5005698;28;20052;-70
2023/03/17 12:18:19;;;;;;;7.78;3.72;;;16.80;97.90;;;;;;5028737;28;20041;-70
2023/03/17 12:20:58;;;;;;;9.25;4.13;;;16.80;98.00;;;;;;5014206;28;20048;-69
2023/03/17 12:23:33;;;;;;;5.45;3.35;;;16.70;97.90;;;;;;5018729;28;20099;-69
2023/03/17 12:26:03;;;;;;;7.43;3.90;;;16.60;97.70;;;;;;5022108;28;20042;-69
2023/03/17 12:28:39;;;;;;;8.38;4.25;;;16.60;98.10;;;;;;5003287;28;20092;-69
2023/03/17 12:31:08;;;;;;;6.65;3.85;;;16.50;97.40;;;;;;5027506;28;20053;-69
2023/03/17 12:33:48;;;;;;;6.95;4.22;;;16.50;97.70;;;;;;5008089;28;20174;-69
2023/03/17 12:36:16;;;;;;;17.25;3.55;;;16.40;97.90;;;;;;5025146;28;20104;-71
2023/03/17 12:38:56;;;;;;;7.38;3.58;;;16.50;97.90;;;;;;5018122;28;20047;-69
2023/03/17 12:41:40;;;;;;;8.40;3.63;;;16.40;97.90;;;;;;5010240;28;20479;-69
2023/03/17 12:44:19;;;;;;;9.45;3.50;;;16.40;98.00;;;;;;5001273;28;20049;-69
2023/03/17 12:47:04;;;;;;;6.95;3.35;;;16.30;97.60;;;;;;4996645;28;20072;-69
2023/03/17 12:49:29;;;;;;;8.32;3.60;;;16.20;97.30;;;;;;5028075;28;20045;-69
2023/03/17 12:52:11;;;;;;;9.80;4.00;;;16.10;97.90;;;;;;5025755;28;20045;-69
2023/03/17 12:54:43;;;;;;;8.20;4.25;;;16.00;97.90;;;;;;5014082;28;20045;-69
2023/03/17 12:57:13;;;;;;;9.20;4.22;;;15.90;98.40;;;;;;5010925;28;20049;-69
2023/03/17 12:59:45;;;;;;;6.38;3.63;;;15.80;98.30;;;;;;4999980;28;20116;-69
2023/03/17 13:02:26;;;;;;;5.90;3.70;;;15.70;98.00;;;;;;5017267;28;20117;-69
2023/03/17 13:04:59;;;;;;;8.32;3.95;;;15.60;97.90;;;;;;5020214;28;20072;-69